createdAt,value
2022-08-25T00:00:11.554Z,41.05
2022-08-25T00:02:38.235Z,46.65
2022-08-25T00:05:05.617Z,56.47
2022-08-25T00:07:33.501Z,40.20
2022-08-25T00:10:00.423Z,48.40
2022-08-25T00:12:27.118Z,45.78
2022-08-25T00:14:53.809Z,36.55
2022-08-25T00:17:20.437Z,48.42
2022-08-25T00:19:47.051Z,45.97
2022-08-25T00:22:13.680Z,45.53
2022-08-25T00:24:40.306Z,44.55
2022-08-25T00:27:06.893Z,59.35
2022-08-25T00:29:34.157Z,53.55
2022-08-25T00:32:01.304Z,50.88
2022-08-25T00:34:34.489Z,49.38
2022-08-25T00:37:02.451Z,40.35
2022-08-25T00:39:29.370Z,35.40
2022-08-25T00:41:57.839Z,61.70
2022-08-25T00:44:27.321Z,52.25
2022-08-25T00:46:56.904Z,43.85
2022-08-25T00:49:32.148Z,51.85
2022-08-25T00:52:03.170Z,38.97
2022-08-25T00:54:49.994Z,37.55
2022-08-25T00:57:22.111Z,41.33
2022-08-25T01:00:01.991Z,48.83
2022-08-25T01:02:28.644Z,42.53
2022-08-25T01:04:55.310Z,39.90
2022-08-25T01:07:24.056Z,43.85
2022-08-25T01:09:52.600Z,47.53
2022-08-25T01:12:20.047Z,36.42
2022-08-25T01:14:46.765Z,47.50
2022-08-25T01:17:14.865Z,38.67
2022-08-25T01:19:42.074Z,46.25
2022-08-25T01:22:12.131Z,44.72
2022-08-25T01:24:47.191Z,51.00
2022-08-25T01:27:14.018Z,50.60
2022-08-25T01:29:45.429Z,39.85
2022-08-25T01:32:14.627Z,54.92
2022-08-25T01:34:44.343Z,40.88
2022-08-25T01:37:13.721Z,41.28
2022-08-25T01:39:41.783Z,46.72
2022-08-25T01:42:11.441Z,49.92
2022-08-25T01:44:41.929Z,50.35
2022-08-25T01:47:09.371Z,46.63
2022-08-25T01:49:36.410Z,43.33
2022-08-25T01:52:05.759Z,49.80
2022-08-25T01:54:32.690Z,58.75
2022-08-25T01:56:59.578Z,42.30
2022-08-25T01:59:27.126Z,54.92
2022-08-25T02:01:59.739Z,51.53
2022-08-25T02:04:32.499Z,56.05
2022-08-25T02:07:05.303Z,50.67
2022-08-25T02:09:32.372Z,44.75
2022-08-25T02:11:59.365Z,46.40
2022-08-25T02:14:26.592Z,51.22
2022-08-25T02:16:54.388Z,47.13
2022-08-25T02:19:23.512Z,48.65
2022-08-25T02:21:50.354Z,58.33
2022-08-25T02:24:17.539Z,56.20
2022-08-25T02:26:44.401Z,52.50
2022-08-25T02:29:11.587Z,48.20
2022-08-25T02:31:39.266Z,43.95
2022-08-25T02:34:07.101Z,47.85
2022-08-25T02:36:34.614Z,41.53
2022-08-25T02:39:01.476Z,55.13
2022-08-25T02:41:31.306Z,43.50
2022-08-25T02:44:00.433Z,49.67
2022-08-25T02:46:27.925Z,50.83
2022-08-25T02:48:55.322Z,54.33
2022-08-25T02:51:24.419Z,47.65
2022-08-25T02:53:51.679Z,52.83
2022-08-25T02:56:19.880Z,42.20
2022-08-25T02:58:47.726Z,45.25
2022-08-25T03:01:16.479Z,45.05
2022-08-25T03:03:45.871Z,46.35
2022-08-25T03:06:15.256Z,53.03
2022-08-25T03:08:43.306Z,52.30
2022-08-25T03:11:10.508Z,43.35
2022-08-25T03:13:37.751Z,45.60
2022-08-25T03:16:11.449Z,55.58
2022-08-25T03:21:07.504Z,45.90
2022-08-25T03:23:34.165Z,61.65
2022-08-25T03:26:19.362Z,45.35
2022-08-25T03:28:46.018Z,48.08
2022-08-25T03:31:12.653Z,54.83
2022-08-25T03:33:40.163Z,51.97
2022-08-25T03:36:08.696Z,47.47
2022-08-25T03:38:38.442Z,54.13
2022-08-25T03:41:15.017Z,50.25
2022-08-25T03:43:41.719Z,59.33
2022-08-25T03:46:08.407Z,49.83
2022-08-25T03:48:35.143Z,55.47
2022-08-25T03:51:01.750Z,47.20
2022-08-25T03:53:28.450Z,52.13
2022-08-25T03:55:55.057Z,50.50
2022-08-25T03:58:21.916Z,48.53
2022-08-25T04:00:48.601Z,53.35
2022-08-25T04:03:15.282Z,48.92
2022-08-25T04:05:42.988Z,49.35
2022-08-25T04:08:09.620Z,50.88
2022-08-25T04:10:37.532Z,48.33
2022-08-25T04:13:05.443Z,56.17
2022-08-25T04:15:32.085Z,42.67
2022-08-25T04:17:59.168Z,50.78
2022-08-25T04:20:26.003Z,48.03
2022-08-25T04:22:52.627Z,50.33
2022-08-25T04:25:19.250Z,53.97
2022-08-25T04:27:45.906Z,41.40
2022-08-25T04:30:13.428Z,48.13
2022-08-25T04:32:40.103Z,47.38
2022-08-25T04:35:07.594Z,57.88
2022-08-25T04:37:34.452Z,56.75
2022-08-25T04:40:01.505Z,43.58
2022-08-25T04:42:28.522Z,51.83
2022-08-25T04:44:55.227Z,45.20
2022-08-25T04:47:22.587Z,56.63
2022-08-25T04:49:49.350Z,51.47
2022-08-25T04:52:16.005Z,51.65
2022-08-25T04:54:43.963Z,45.03
2022-08-25T04:57:11.085Z,45.95
2022-08-25T04:59:37.787Z,49.03
2022-08-25T05:02:06.672Z,41.95
2022-08-25T05:04:35.265Z,47.40
2022-08-25T05:07:03.248Z,47.05
2022-08-25T05:09:32.343Z,51.03
2022-08-25T05:12:00.763Z,51.55
2022-08-25T05:14:27.470Z,50.20
2022-08-25T05:16:58.101Z,56.92
2022-08-25T05:19:25.298Z,47.50
2022-08-25T05:21:52.654Z,43.33
2022-08-25T05:24:20.328Z,44.60
2022-08-25T05:26:47.184Z,40.58
2022-08-25T05:29:14.543Z,48.65
2022-08-25T05:31:45.940Z,41.15
2022-08-25T05:34:15.163Z,43.97
2022-08-25T05:36:43.523Z,43.67
2022-08-25T05:39:11.060Z,40.10
2022-08-25T05:41:38.294Z,44.67
2022-08-25T05:44:05.032Z,39.00
2022-08-25T05:46:31.920Z,36.47
2022-08-25T05:48:59.260Z,37.80
2022-08-25T05:51:26.655Z,36.60
2022-08-25T05:53:53.397Z,42.13
2022-08-25T05:56:20.266Z,43.95
2022-08-25T05:58:47.084Z,42.17
2022-08-25T06:01:45.522Z,36.88
2022-08-25T06:04:13.390Z,41.60
2022-08-25T06:06:40.682Z,38.13
2022-08-25T06:09:09.404Z,40.03
2022-08-25T06:11:38.118Z,60.08
2022-08-25T06:14:04.846Z,45.50
2022-08-25T06:16:31.749Z,39.28
2022-08-25T06:18:58.498Z,43.55
2022-08-25T06:21:25.342Z,39.08
2022-08-25T06:23:52.750Z,35.78
2022-08-25T06:26:21.108Z,32.78
2022-08-25T06:28:51.595Z,45.38
2022-08-25T06:31:19.590Z,40.50
2022-08-25T06:33:46.660Z,35.55
2022-08-25T06:36:13.982Z,38.80
2022-08-25T06:38:40.800Z,38.28
2022-08-25T06:41:08.793Z,42.78
2022-08-25T06:43:36.751Z,37.60
2022-08-25T06:46:15.785Z,36.72
2022-08-25T06:48:43.003Z,35.40
2022-08-25T06:51:14.113Z,37.83
2022-08-25T06:53:41.603Z,41.38
2022-08-25T06:56:08.538Z,32.88
2022-08-25T06:58:35.901Z,39.55
2022-08-25T07:01:14.994Z,25.02
2022-08-25T07:03:46.277Z,38.77
2022-08-25T07:06:14.722Z,34.33
2022-08-25T07:08:46.104Z,35.72
2022-08-25T07:11:16.603Z,31.83
2022-08-25T07:13:45.572Z,38.72
2022-08-25T07:16:15.378Z,32.50
2022-08-25T07:18:42.522Z,40.42
2022-08-25T07:21:12.416Z,29.83
2022-08-25T07:23:40.103Z,32.45
2022-08-25T07:26:36.729Z,36.67
2022-08-25T07:29:20.186Z,31.30
2022-08-25T07:31:59.197Z,33.80
2022-08-25T07:34:44.493Z,29.83
2022-08-25T07:37:32.321Z,35.47
2022-08-25T07:40:07.300Z,35.75
2022-08-25T07:42:34.064Z,30.73
2022-08-25T07:45:00.644Z,31.83
2022-08-25T07:47:27.281Z,44.78
2022-08-25T07:49:53.903Z,46.70
2022-08-25T07:52:21.392Z,32.88
2022-08-25T07:54:47.992Z,32.75
2022-08-25T07:57:14.633Z,32.42
2022-08-25T07:59:42.788Z,40.58
2022-08-25T08:02:18.185Z,32.17
2022-08-25T08:04:50.090Z,32.55
2022-08-25T08:07:23.284Z,38.38
2022-08-25T08:10:04.738Z,28.02
2022-08-25T08:12:38.221Z,30.00
2022-08-25T08:15:10.153Z,34.65
2022-08-25T08:17:37.945Z,34.13
2022-08-25T08:20:09.089Z,27.67
2022-08-25T08:22:41.485Z,32.55
2022-08-25T08:25:10.551Z,29.55
2022-08-25T08:27:38.066Z,25.00
2022-08-25T08:30:06.592Z,33.70
2022-08-25T08:32:59.597Z,27.80
2022-08-25T08:35:19.885Z,27.70
2022-08-25T08:37:46.752Z,37.38
2022-08-25T08:40:16.004Z,39.88
2022-08-25T08:42:56.494Z,38.55
2022-08-25T08:45:35.671Z,30.65
2022-08-25T08:48:17.376Z,27.15
2022-08-25T08:51:01.758Z,32.97
2022-08-25T08:54:00.079Z,30.92
2022-08-25T08:56:34.810Z,28.27
2022-08-25T08:59:19.605Z,29.95
2022-08-25T09:01:54.299Z,24.77
2022-08-25T09:04:45.368Z,34.17
2022-08-25T09:07:18.966Z,26.17
2022-08-25T09:09:48.049Z,21.73
2022-08-25T09:12:38.143Z,25.15
2022-08-25T09:16:09.835Z,21.83
2022-08-25T09:19:07.028Z,30.60
2022-08-25T09:21:47.109Z,28.35
2022-08-25T09:24:33.104Z,29.88
2022-08-25T09:27:03.308Z,24.25
2022-08-25T09:29:46.778Z,31.63
2022-08-25T09:32:15.795Z,28.63
2022-08-25T09:34:52.806Z,31.65
2022-08-25T09:37:20.496Z,26.85
2022-08-25T09:39:47.258Z,27.73
2022-08-25T09:42:13.989Z,29.58
2022-08-25T09:44:41.424Z,21.90
2022-08-25T09:47:28.302Z,22.88
2022-08-25T09:50:04.388Z,29.30
2022-08-25T09:52:34.601Z,32.85
2022-08-25T09:55:16.268Z,27.52
2022-08-25T09:57:42.830Z,28.15
2022-08-25T10:00:23.743Z,26.00
2022-08-25T10:03:22.692Z,20.40
2022-08-25T10:06:13.314Z,21.80
2022-08-25T10:08:43.343Z,25.00
2022-08-25T10:11:15.237Z,17.33
2022-08-25T10:13:46.964Z,16.23
2022-08-25T10:16:29.648Z,13.43
2022-08-25T10:19:21.443Z,18.98
2022-08-25T10:22:02.211Z,19.73
2022-08-25T10:24:29.247Z,18.88
2022-08-25T10:27:03.458Z,18.27
2022-08-25T10:30:08.431Z,15.85
2022-08-25T10:32:53.607Z,12.85
2022-08-25T10:35:51.639Z,20.73
2022-08-25T10:38:36.241Z,16.70
2022-08-25T10:41:24.954Z,23.63
2022-08-25T10:44:31.826Z,15.40
2022-08-25T10:47:23.239Z,26.15
2022-08-25T10:49:56.016Z,15.63
2022-08-25T10:52:38.498Z,15.50
2022-08-25T10:55:24.908Z,18.15
2022-08-25T10:58:26.850Z,16.73
2022-08-25T11:01:19.450Z,22.17
2022-08-25T11:04:11.437Z,13.60
2022-08-25T11:06:40.707Z,15.85
2022-08-25T11:09:16.063Z,17.67
2022-08-25T11:11:50.295Z,10.55
2022-08-25T11:14:23.514Z,16.95
2022-08-25T11:17:02.600Z,19.93
2022-08-25T11:19:32.817Z,17.33
2022-08-25T11:22:32.824Z,18.02
2022-08-25T11:25:21.769Z,14.02
2022-08-25T11:28:06.934Z,15.93
2022-08-25T11:30:33.818Z,15.52
2022-08-25T11:33:00.805Z,15.75
2022-08-25T11:35:36.218Z,17.50
2022-08-25T11:38:28.971Z,21.63
2022-08-25T11:41:21.503Z,9.80
2022-08-25T11:44:00.095Z,11.00
2022-08-25T11:46:59.861Z,14.98
2022-08-25T11:49:50.166Z,12.27
2022-08-25T11:52:36.088Z,12.25
2022-08-25T11:55:15.212Z,12.00
2022-08-25T11:57:43.927Z,15.57
2022-08-25T12:00:17.492Z,12.00
2022-08-25T12:02:50.540Z,10.30
2022-08-25T12:05:17.163Z,13.05
2022-08-25T12:08:12.648Z,15.07
2022-08-25T12:10:54.289Z,11.23
2022-08-25T12:13:41.518Z,15.35
2022-08-25T12:16:36.951Z,15.23
2022-08-25T12:19:24.594Z,12.68
2022-08-25T12:21:53.857Z,11.73
2022-08-25T12:24:47.557Z,11.75
2022-08-25T12:27:38.439Z,13.20
2022-08-25T12:30:21.856Z,14.32
2022-08-25T12:33:10.068Z,8.60
2022-08-25T12:35:53.613Z,10.07
2022-08-25T12:38:46.378Z,13.93
2022-08-25T12:41:30.936Z,14.25
2022-08-25T12:44:34.954Z,11.70
2022-08-25T12:47:31.974Z,17.42
2022-08-25T12:50:32.717Z,16.55
2022-08-25T12:53:24.597Z,11.60
2022-08-25T12:56:02.790Z,12.00
2022-08-25T12:58:56.606Z,11.43
2022-08-25T13:01:43.598Z,10.02
2022-08-25T13:04:35.054Z,17.80
2022-08-25T13:07:13.620Z,8.68
2022-08-25T13:09:58.870Z,17.40
2022-08-25T13:12:36.902Z,13.07
2022-08-25T13:15:04.435Z,9.18
2022-08-25T13:17:34.982Z,14.23
2022-08-25T13:20:19.476Z,13.02
2022-08-25T13:22:50.301Z,9.82
2022-08-25T13:25:23.287Z,16.83
2022-08-25T13:28:03.210Z,15.18
2022-08-25T13:30:33.672Z,8.45
2022-08-25T13:33:15.233Z,10.93
2022-08-25T13:35:49.374Z,8.48
2022-08-25T13:38:19.640Z,14.45
2022-08-25T13:40:46.389Z,13.85
2022-08-25T13:43:14.993Z,10.43
2022-08-25T13:45:48.142Z,12.95
2022-08-25T13:48:49.445Z,14.15
2022-08-25T13:51:23.812Z,10.00
2022-08-25T13:54:12.009Z,10.25
2022-08-25T13:56:42.396Z,17.88
2022-08-25T13:59:26.917Z,12.32
2022-08-25T14:01:55.260Z,17.65
2022-08-25T14:04:46.817Z,16.60
2022-08-25T14:07:21.420Z,17.23
2022-08-25T14:09:52.223Z,11.00
2022-08-25T14:15:17.819Z,11.25
2022-08-25T14:18:31.012Z,12.48
2022-08-25T14:21:11.459Z,10.93
2022-08-25T14:23:39.358Z,11.65
2022-08-25T14:26:06.551Z,19.08
2022-08-25T14:28:34.786Z,17.08
2022-08-25T14:31:25.394Z,23.85
2022-08-25T14:33:57.883Z,15.20
2022-08-25T14:36:26.552Z,12.90
2022-08-25T14:38:56.796Z,14.85
2022-08-25T14:41:24.493Z,13.68
2022-08-25T14:43:51.094Z,13.38
2022-08-25T14:46:24.190Z,15.40
2022-08-25T14:48:55.555Z,10.32
2022-08-25T14:51:24.445Z,16.45
2022-08-25T14:53:53.896Z,15.90
2022-08-25T14:56:20.565Z,14.50
2022-08-25T14:58:51.108Z,16.50
2022-08-25T15:01:28.992Z,12.57
2022-08-25T15:04:10.658Z,14.50
2022-08-25T15:06:39.253Z,23.23
2022-08-25T15:09:11.452Z,15.63
2022-08-25T15:11:42.630Z,13.02
2022-08-25T15:14:11.041Z,23.42
2022-08-25T15:16:45.253Z,12.50
2022-08-25T15:19:15.991Z,19.75
2022-08-25T15:21:44.811Z,11.90
2022-08-25T15:24:12.628Z,9.52
2022-08-25T15:29:20.960Z,12.82
2022-08-25T15:31:48.017Z,14.60
2022-08-25T15:34:15.712Z,12.60
2022-08-25T15:36:42.927Z,12.23
2022-08-25T15:39:10.193Z,9.82
2022-08-25T15:41:37.876Z,15.00
2022-08-25T15:44:06.452Z,16.17
2022-08-25T15:46:35.960Z,9.60
2022-08-25T15:49:02.901Z,14.02
2022-08-25T15:51:29.712Z,13.05
2022-08-25T15:53:57.685Z,12.98
2022-08-25T15:56:26.894Z,14.48
2022-08-25T15:58:55.455Z,14.52
2022-08-25T16:01:25.185Z,13.75
2022-08-25T16:03:52.633Z,13.13
2022-08-25T16:06:19.557Z,16.63
2022-08-25T16:08:46.245Z,10.45
2022-08-25T16:11:18.877Z,12.85
2022-08-25T16:13:49.200Z,12.85
2022-08-25T16:16:17.685Z,14.10
2022-08-25T16:18:44.870Z,10.55
2022-08-25T16:21:15.467Z,16.52
2022-08-25T16:23:43.151Z,15.52
2022-08-25T16:26:11.099Z,10.55
2022-08-25T16:28:43.795Z,12.38
2022-08-25T16:31:12.441Z,15.38
2022-08-25T16:36:14.622Z,15.95
2022-08-25T16:38:42.554Z,11.00
2022-08-25T16:41:20.089Z,18.00
2022-08-25T16:43:47.550Z,20.05
2022-08-25T16:46:17.356Z,12.68
2022-08-25T16:48:44.548Z,16.58
2022-08-25T16:51:14.723Z,10.13
2022-08-25T16:54:01.231Z,13.65
2022-08-25T16:56:28.447Z,15.48
2022-08-25T16:58:58.096Z,11.90
2022-08-25T17:01:25.844Z,14.60
2022-08-25T17:03:54.074Z,14.48
2022-08-25T17:06:23.885Z,10.85
2022-08-25T17:08:51.399Z,12.25
2022-08-25T17:11:20.813Z,15.95
2022-08-25T17:13:51.321Z,16.17
2022-08-25T17:16:21.163Z,14.43
2022-08-25T17:18:48.811Z,12.80
2022-08-25T17:21:23.846Z,13.63
2022-08-25T17:23:51.559Z,14.38
2022-08-25T17:26:18.443Z,17.92
2022-08-25T17:28:45.748Z,11.07
2022-08-25T17:31:14.422Z,16.63
2022-08-25T17:33:41.861Z,13.65
2022-08-25T17:36:09.194Z,16.17
2022-08-25T17:38:36.355Z,18.25
2022-08-25T17:41:08.524Z,14.82
2022-08-25T17:43:38.347Z,23.35
2022-08-25T17:46:06.026Z,17.52
2022-08-25T17:48:33.375Z,14.07
2022-08-25T17:51:01.338Z,16.75
2022-08-25T17:53:28.641Z,24.27
2022-08-25T17:56:02.312Z,23.65
2022-08-25T17:58:30.627Z,19.30
2022-08-25T18:00:58.577Z,19.75
2022-08-25T18:03:26.829Z,12.32
2022-08-25T18:05:54.286Z,16.73
2022-08-25T18:08:20.970Z,21.67
2022-08-25T18:10:58.818Z,28.33
2022-08-25T18:13:26.769Z,20.23
2022-08-25T18:15:55.128Z,21.65
2022-08-25T18:18:21.845Z,19.95
2022-08-25T18:20:51.525Z,17.98
2022-08-25T18:23:19.875Z,21.05
2022-08-25T18:25:48.971Z,21.85
2022-08-25T18:28:16.167Z,15.55
2022-08-25T18:30:43.216Z,24.60
2022-08-25T18:33:10.636Z,20.90
2022-08-25T18:35:37.995Z,15.20
2022-08-25T18:38:24.330Z,19.33
2022-08-25T18:41:02.265Z,18.42
2022-08-25T18:43:31.912Z,18.60
2022-08-25T18:46:03.515Z,18.08
2022-08-25T18:48:31.916Z,24.13
2022-08-25T18:51:00.621Z,22.73
2022-08-25T18:53:30.699Z,19.45
2022-08-25T18:56:16.130Z,20.77
2022-08-25T18:58:42.806Z,20.75
2022-08-25T19:01:13.594Z,20.15
2022-08-25T19:03:40.371Z,22.83
2022-08-25T19:06:07.188Z,12.50
2022-08-25T19:08:34.245Z,15.98
2022-08-25T19:11:01.018Z,17.92
2022-08-25T19:13:27.708Z,20.08
2022-08-25T19:15:54.470Z,20.63
2022-08-25T19:18:26.200Z,19.05
2022-08-25T19:20:56.036Z,15.30
2022-08-25T19:23:22.684Z,20.73
2022-08-25T19:25:49.379Z,19.70
2022-08-25T19:28:16.295Z,19.63
2022-08-25T19:30:50.090Z,29.40
2022-08-25T19:33:42.366Z,17.92
2022-08-25T19:36:08.462Z,21.90
2022-08-25T19:38:36.988Z,19.42
2022-08-25T19:41:10.633Z,22.55
2022-08-25T19:43:50.535Z,17.65
2022-08-25T19:46:33.353Z,18.00
2022-08-25T19:49:08.921Z,24.85
2022-08-25T19:51:44.121Z,15.05
2022-08-25T19:54:17.483Z,15.30
2022-08-25T19:56:54.385Z,19.17
2022-08-25T19:59:40.435Z,16.70
2022-08-25T20:02:15.527Z,18.77
2022-08-25T20:04:49.452Z,20.40
2022-08-25T20:07:18.087Z,21.40
2022-08-25T20:09:45.213Z,18.88
2022-08-25T20:12:12.272Z,23.23
2022-08-25T20:14:39.811Z,20.52
2022-08-25T20:17:23.131Z,18.92
2022-08-25T20:19:52.040Z,23.73
2022-08-25T20:22:19.929Z,20.52
2022-08-25T20:24:49.448Z,22.60
2022-08-25T20:27:23.335Z,18.48
2022-08-25T20:29:52.102Z,17.00
2022-08-25T20:32:19.789Z,22.30
2022-08-25T20:34:47.074Z,15.15
2022-08-25T20:37:13.771Z,18.27
2022-08-25T20:39:41.460Z,23.52
2022-08-25T20:42:08.622Z,22.60
2022-08-25T20:44:41.429Z,17.83
2022-08-25T20:47:10.538Z,22.63
2022-08-25T20:49:39.299Z,21.05
2022-08-25T20:52:07.167Z,20.95
2022-08-25T20:54:33.960Z,19.00
2022-08-25T20:57:01.063Z,26.67
2022-08-25T20:59:29.534Z,20.90
2022-08-25T21:01:56.818Z,30.27
2022-08-25T21:04:26.531Z,28.05
2022-08-25T21:06:53.435Z,28.50
2022-08-25T21:09:23.028Z,20.83
2022-08-25T21:11:55.903Z,22.55
2022-08-25T21:14:24.423Z,25.17
2022-08-25T21:16:53.408Z,22.27
2022-08-25T21:19:26.393Z,21.45
2022-08-25T21:21:54.482Z,19.67
2022-08-25T21:24:27.488Z,22.88
2022-08-25T21:26:56.483Z,23.75
2022-08-25T21:29:25.396Z,19.33
2022-08-25T21:31:56.163Z,19.60
2022-08-25T21:34:23.161Z,24.17
2022-08-25T21:36:49.818Z,22.40
2022-08-25T21:39:16.973Z,25.23
2022-08-25T21:41:45.147Z,21.25
2022-08-25T21:44:13.077Z,28.67
2022-08-25T21:46:41.182Z,25.00
2022-08-25T21:49:08.635Z,22.70
2022-08-25T21:51:40.667Z,24.75
2022-08-25T21:54:11.902Z,26.52
2022-08-25T21:56:42.931Z,26.33
2022-08-25T21:59:14.039Z,23.17
2022-08-25T22:01:41.794Z,26.55
2022-08-25T22:04:10.481Z,20.52
2022-08-25T22:06:38.165Z,23.30
2022-08-25T22:09:06.683Z,20.73
2022-08-25T22:11:36.252Z,23.40
2022-08-25T22:14:05.677Z,22.50
2022-08-25T22:16:34.991Z,30.80
2022-08-25T22:19:03.237Z,22.58
2022-08-25T22:21:30.790Z,24.85
2022-08-25T22:23:58.437Z,25.48
2022-08-25T22:26:29.154Z,22.48
2022-08-25T22:28:57.571Z,26.80
2022-08-25T22:31:25.386Z,24.08
2022-08-25T22:33:52.482Z,24.20
2022-08-25T22:36:20.383Z,28.00
2022-08-25T22:38:47.625Z,23.90
2022-08-25T22:41:19.157Z,30.17
2022-08-25T22:43:51.569Z,28.40
2022-08-25T22:46:21.215Z,28.27
2022-08-25T22:48:50.360Z,35.90
2022-08-25T22:51:21.992Z,22.40
2022-08-25T22:53:49.470Z,27.92
2022-08-25T22:56:18.543Z,24.58
2022-08-25T22:58:51.519Z,28.85
2022-08-25T23:01:19.815Z,23.85
2022-08-25T23:03:47.572Z,25.25
2022-08-25T23:06:20.754Z,32.33
2022-08-25T23:08:53.690Z,26.33
2022-08-25T23:11:21.667Z,26.08
2022-08-25T23:13:48.943Z,21.77
2022-08-25T23:16:15.989Z,28.85
2022-08-25T23:18:44.732Z,30.35
2022-08-25T23:21:35.058Z,27.63
2022-08-25T23:24:02.115Z,29.42
2022-08-25T23:26:29.479Z,28.50
2022-08-25T23:28:56.350Z,31.48
2022-08-25T23:31:23.630Z,27.75
2022-08-25T23:33:51.428Z,32.95
2022-08-25T23:36:19.514Z,25.90
2022-08-25T23:38:51.492Z,25.58
2022-08-25T23:41:21.413Z,26.17
2022-08-25T23:43:50.074Z,24.67
2022-08-25T23:46:19.850Z,34.70
2022-08-25T23:48:48.787Z,27.17
2022-08-25T23:51:27.665Z,25.73
2022-08-25T23:53:56.378Z,33.72
2022-08-25T23:56:24.242Z,24.80
2022-08-25T23:58:52.187Z,25.42
